Lanier, Texas
Current Conditions -  °F | °C
As of 6:35 AM on Monday 24 Nov 2014 (Local Time) from KASL Reporting Station
Clear Clear  
Wind Chill: 46°   Ceiling: Unl
Heat Index: 48°   Visibility: 10mi
Dew Point: 42°   Wind: 5mph
Humidity: 78%   Direction: 310°NW
Pressure: 29.94"   Gusts: NA
Location:  33.0065°N, 94.3775°W
Report Text: KASL 241235Z AUTO 31004KT 10SM CLR 09/05 A2994 RMK AO1 T00900053
Loading
Personal Weather Stations






























Interactive Weather Map New forecast layout! Learn more

10-Day Weather Forecast

Advertisements
Track Severe Weather on mobile